Time;durP1;ratioP1;P1;durP2;ratioP2;P2;SDS_P1;SDS_P2;PMS_P1;PMS_P2;Temp;Humidity;BMP_temperature;BMP_pressure;BME280_temperature;BME280_humidity;BME280_pressure;Samples;Min_cycle;Max_cycle;Signal;HPM_P1;HPM_P2
2021/08/21 00:02:15;;;;;;;6.55;3.58;;;;;;;13.95;86.12;100574.47;5048899;28;20041;-60
2021/08/21 00:04:42;;;;;;;6.05;4.45;;;;;;;13.91;86.56;100571.25;5050615;28;20466;-61
2021/08/21 00:07:09;;;;;;;9.27;5.28;;;;;;;13.88;86.73;100571.59;5049286;28;20053;-59
2021/08/21 00:09:37;;;;;;;9.88;5.43;;;;;;;13.87;86.83;100571.75;5049575;28;20418;-62
2021/08/21 00:12:04;;;;;;;21.60;9.13;;;;;;;13.82;87.33;100569.50;5048803;28;20460;-61
2021/08/21 00:14:30;;;;;;;20.45;10.30;;;;;;;13.73;87.69;100562.34;5050588;28;20099;-60
2021/08/21 00:16:57;;;;;;;10.85;6.18;;;;;;;13.66;87.81;100570.22;5050433;28;20092;-62
2021/08/21 00:19:23;;;;;;;10.73;5.78;;;;;;;13.66;88.26;100559.44;5049417;28;20103;-62
2021/08/21 00:21:51;;;;;;;12.23;6.57;;;;;;;13.61;88.83;100556.34;5049094;28;20138;-61
2021/08/21 00:24:17;;;;;;;7.40;5.60;;;;;;;13.65;89.44;100568.53;5050007;28;20095;-60
2021/08/21 00:26:44;;;;;;;6.97;5.60;;;;;;;13.89;88.21;100569.72;5049823;28;20118;-62
2021/08/21 00:29:10;;;;;;;8.20;5.85;;;;;;;13.90;88.34;100557.94;5049321;28;20572;-60
2021/08/21 00:31:36;;;;;;;4.85;3.65;;;;;;;13.94;88.32;100564.69;5048992;28;20103;-60
2021/08/21 00:34:03;;;;;;;8.40;5.60;;;;;;;14.05;87.84;100561.75;5049667;28;20491;-61
2021/08/21 00:36:30;;;;;;;13.98;6.43;;;;;;;14.14;87.63;100568.88;5049494;28;20118;-62
2021/08/21 00:38:58;;;;;;;13.73;7.57;;;;;;;14.18;87.70;100566.72;5048643;28;20049;-60
2021/08/21 00:41:24;;;;;;;11.98;6.10;;;;;;;14.17;87.65;100567.72;5049648;28;20572;-61
2021/08/21 00:43:50;;;;;;;12.00;5.28;;;;;;;14.22;87.65;100568.09;5049827;28;20549;-61
2021/08/21 00:46:17;;;;;;;11.55;5.80;;;;;;;14.27;87.00;100574.69;5047491;28;20114;-61
2021/08/21 00:48:43;;;;;;;7.53;4.50;;;;;;;14.26;87.36;100578.41;5049767;28;20127;-60
2021/08/21 00:51:10;;;;;;;9.23;4.20;;;;;;;14.24;87.54;100575.03;5049561;28;20049;-60
2021/08/21 00:53:36;;;;;;;9.93;6.57;;;;;;;14.14;87.78;100586.94;5049114;28;20053;-62
2021/08/21 00:56:06;;;;;;;13.15;7.28;;;;;;;14.00;88.50;100593.75;5050113;28;20134;-61
2021/08/21 00:58:34;;;;;;;9.30;6.53;;;;;;;14.00;89.03;100588.38;5041850;28;20076;-62
2021/08/21 01:01:00;;;;;;;11.75;6.10;;;;;;;14.04;89.08;100589.72;5046155;28;20072;-64
2021/08/21 01:03:26;;;;;;;9.90;5.43;;;;;;;14.12;88.71;100586.25;5049146;28;20095;-63
2021/08/21 01:05:53;;;;;;;13.63;6.57;;;;;;;14.16;89.21;100582.22;5049266;28;20104;-62
2021/08/21 01:08:19;;;;;;;8.93;5.88;;;;;;;14.17;89.68;100584.75;5049516;28;20499;-62
2021/08/21 01:10:47;;;;;;;8.30;5.95;;;;;;;14.23;89.55;100577.91;5050494;28;20056;-62
2021/08/21 01:13:15;;;;;;;9.60;6.45;;;;;;;14.22;89.73;100577.03;5047863;28;20445;-62
2021/08/21 01:15:42;;;;;;;10.60;7.30;;;;;;;14.23;89.54;100576.03;5050158;28;20045;-60
2021/08/21 01:18:08;;;;;;;9.43;6.38;;;;;;;14.19;90.10;100566.53;5049560;28;20049;-60
2021/08/21 01:20:35;;;;;;;8.73;5.15;;;;;;;14.16;90.13;100561.47;5047658;28;20557;-60
2021/08/21 01:23:02;;;;;;;6.05;4.50;;;;;;;14.19;90.41;100565.69;5049183;28;20045;-61
2021/08/21 01:25:30;;;;;;;13.10;7.72;;;;;;;14.38;89.79;100567.34;5048003;28;20103;-62
2021/08/21 01:27:58;;;;;;;8.80;5.47;;;;;;;14.33;89.99;100563.28;5046119;28;20071;-62
2021/08/21 01:30:25;;;;;;;9.40;5.80;;;;;;;14.35;90.06;100549.63;5051967;28;20396;-61
2021/08/21 01:32:51;;;;;;;8.05;5.03;;;;;;;14.35;90.28;100560.41;5052274;28;20056;-61
2021/08/21 01:35:17;;;;;;;14.77;7.63;;;;;;;14.28;90.19;100559.34;5052568;28;20080;-62
2021/08/21 01:37:44;;;;;;;8.95;6.20;;;;;;;14.24;90.65;100561.53;5053515;28;20552;-63
2021/08/21 01:40:14;;;;;;;12.93;8.05;;;;;;;14.19;91.04;100561.16;5052303;28;20094;-60
2021/08/21 01:42:40;;;;;;;14.88;9.20;;;;;;;14.13;91.31;100566.34;5052790;28;20128;-62
2021/08/21 01:45:12;;;;;;;18.50;10.07;;;;;;;14.11;91.54;100558.41;5052551;28;20045;-60
2021/08/21 01:47:39;;;;;;;12.18;7.70;;;;;;;14.19;91.25;100565.69;5053142;28;20471;-62
2021/08/21 01:50:09;;;;;;;13.27;7.38;;;;;;;14.16;91.04;100561.47;5052513;28;20049;-63
2021/08/21 01:52:36;;;;;;;12.07;6.72;;;;;;;14.17;91.43;100563.16;5051393;28;20122;-62
2021/08/21 01:55:04;;;;;;;14.80;7.15;;;;;;;14.19;91.59;100557.59;5053115;28;20102;-63
2021/08/21 01:57:30;;;;;;;16.35;9.13;;;;;;;14.19;91.58;100561.16;5051962;28;20483;-62
2021/08/21 01:59:56;;;;;;;11.52;7.05;;;;;;;14.21;91.35;100553.75;5052927;28;20099;-62
2021/08/21 02:02:25;;;;;;;10.25;6.75;;;;;;;14.22;91.30;100566.25;5050764;28;20107;-63
2021/08/21 02:04:52;;;;;;;11.95;7.57;;;;;;;14.21;91.45;100564.56;5052806;28;20063;-64
2021/08/21 02:07:18;;;;;;;11.70;5.50;;;;;;;14.21;91.60;100563.72;5051442;28;20556;-61
2021/08/21 02:09:44;;;;;;;8.65;4.97;;;;;;;14.20;91.62;100554.75;5051703;28;20094;-61
2021/08/21 02:12:12;;;;;;;20.38;9.32;;;;;;;14.16;91.71;100558.78;5051140;28;20103;-61
2021/08/21 02:14:38;;;;;;;25.83;11.07;;;;;;;14.09;91.76;100552.34;5044832;28;20133;-63
2021/08/21 02:17:05;;;;;;;22.67;10.30;;;;;;;14.04;91.91;100558.19;5052567;28;20073;-60
2021/08/21 02:19:32;;;;;;;15.10;8.55;;;;;;;14.06;92.19;100563.44;5051615;28;20053;-61
2021/08/21 02:22:01;;;;;;;15.63;7.78;;;;;;;14.05;92.18;100565.28;5050820;28;20045;-61
2021/08/21 02:24:28;;;;;;;26.40;11.73;;;;;;;14.02;92.38;100559.38;5052629;28;20048;-60
2021/08/21 02:26:58;;;;;;;19.30;7.75;;;;;;;14.00;92.20;100566.78;5051561;28;20190;-62
2021/08/21 02:29:24;;;;;;;14.30;7.00;;;;;;;13.99;92.23;100560.53;5052252;28;20044;-62
2021/08/21 02:31:50;;;;;;;13.45;7.25;;;;;;;13.98;92.35;100556.16;5051554;28;20071;-62
2021/08/21 02:34:17;;;;;;;10.70;6.35;;;;;;;13.96;92.53;100555.44;5051819;28;20084;-61
2021/08/21 02:36:45;;;;;;;12.05;5.95;;;;;;;13.97;92.69;100558.97;5051164;28;20041;-62
2021/08/21 02:39:11;;;;;;;11.02;6.72;;;;;;;14.01;92.15;100552.28;5051052;28;20088;-63
2021/08/21 02:41:37;;;;;;;7.63;5.43;;;;;;;14.00;92.07;100555.97;5051595;28;20129;-64
2021/08/21 02:44:04;;;;;;;9.45;5.03;;;;;;;13.97;92.49;100551.75;5051251;28;20041;-62
2021/08/21 02:46:31;;;;;;;8.82;5.30;;;;;;;13.95;92.61;100547.50;5051187;28;20374;-61
2021/08/21 02:48:57;;;;;;;7.70;4.38;;;;;;;13.95;92.70;100550.19;5051237;28;20057;-60
2021/08/21 02:51:23;;;;;;;8.77;5.35;;;;;;;13.94;92.60;100548.50;5051756;28;20110;-62
2021/08/21 02:53:51;;;;;;;7.15;4.45;;;;;;;13.94;92.59;100559.31;5049249;28;20081;-61
2021/08/21 02:56:17;;;;;;;8.60;5.25;;;;;;;13.88;92.69;100554.56;5051821;28;20540;-61
2021/08/21 02:58:44;;;;;;;8.35;5.55;;;;;;;13.82;92.51;100561.41;5050339;28;20103;-62
2021/08/21 03:01:10;;;;;;;7.75;5.30;;;;;;;13.79;92.82;100553.63;5051729;28;20049;-64
2021/08/21 03:03:36;;;;;;;8.07;5.15;;;;;;;13.79;92.68;100560.88;5050837;28;20061;-61
2021/08/21 03:06:03;;;;;;;7.32;4.90;;;;;;;13.78;92.76;100556.50;5049927;28;20133;-61
2021/08/21 03:08:29;;;;;;;9.07;4.80;;;;;;;13.78;92.71;100551.09;5050257;28;20045;-62
2021/08/21 03:10:56;;;;;;;5.10;3.55;;;;;;;13.74;92.72;100548.72;5050821;28;20103;-61
2021/08/21 03:13:23;;;;;;;7.30;5.07;;;;;;;13.69;92.82;100552.88;5051064;28;20076;-61
2021/08/21 03:15:49;;;;;;;8.23;5.85;;;;;;;13.59;92.90;100558.34;5051061;28;20068;-63
2021/08/21 03:18:15;;;;;;;11.15;6.75;;;;;;;13.49;93.14;100564.84;5051046;28;20045;-62
2021/08/21 03:20:42;;;;;;;8.43;5.20;;;;;;;13.49;93.69;100560.28;5050123;28;20491;-61
2021/08/21 03:23:08;;;;;;;6.55;4.55;;;;;;;13.50;93.68;100562.00;5050970;28;20110;-62
2021/08/21 03:25:35;;;;;;;6.90;5.00;;;;;;;13.53;93.75;100560.84;5050232;28;20072;-68
2021/08/21 03:28:02;;;;;;;5.88;4.20;;;;;;;13.58;93.54;100570.16;5049483;28;20527;-61
2021/08/21 03:30:29;;;;;;;6.15;4.30;;;;;;;13.60;92.96;100570.00;5051204;28;20071;-61
2021/08/21 03:32:55;;;;;;;6.65;4.80;;;;;;;13.58;92.72;100566.63;5050979;28;20044;-64
2021/08/21 03:35:22;;;;;;;13.15;7.88;;;;;;;13.53;92.96;100569.78;5050444;28;20099;-62
2021/08/21 03:37:48;;;;;;;6.28;4.63;;;;;;;13.51;92.90;100577.19;5050070;28;20130;-62
2021/08/21 03:40:14;;;;;;;7.20;4.82;;;;;;;13.52;92.84;100576.19;5049481;28;20053;-60
2021/08/21 03:42:41;;;;;;;10.48;6.57;;;;;;;13.50;92.63;100572.81;5050803;28;20052;-63
2021/08/21 03:45:09;;;;;;;8.48;5.75;;;;;;;13.49;92.96;100578.31;5049214;28;20049;-62
2021/08/21 03:47:36;;;;;;;7.95;5.05;;;;;;;13.49;92.98;100583.72;5051239;28;20095;-61
2021/08/21 03:50:02;;;;;;;7.43;4.45;;;;;;;13.49;92.90;100583.72;5047954;28;20052;-58
2021/08/21 03:52:28;;;;;;;9.50;5.82;;;;;;;13.47;92.92;100581.19;5046782;28;20475;-59
2021/08/21 03:54:55;;;;;;;14.57;7.50;;;;;;;13.41;93.35;100588.03;5049979;28;20095;-61
2021/08/21 03:57:21;;;;;;;12.18;7.05;;;;;;;13.40;93.36;100593.59;5050069;28;20049;-60
2021/08/21 03:59:47;;;;;;;10.80;5.47;;;;;;;13.43;93.18;100585.19;5049692;28;20477;-60
2021/08/21 04:02:15;;;;;;;8.70;5.13;;;;;;;13.46;93.19;100588.41;5050938;28;20045;-61
2021/08/21 04:04:41;;;;;;;7.13;4.70;;;;;;;13.53;93.12;100594.06;5048224;28;20410;-60
2021/08/21 04:07:07;;;;;;;7.70;5.28;;;;;;;13.58;92.82;100594.44;5049934;28;20045;-60
2021/08/21 04:09:34;;;;;;;9.73;6.57;;;;;;;13.58;92.99;100585.50;5049853;28;20053;-61
2021/08/21 04:12:00;;;;;;;10.77;7.38;;;;;;;13.55;92.42;100586.66;5049769;28;20419;-61
2021/08/21 04:14:26;;;;;;;8.90;5.93;;;;;;;13.53;92.67;100585.97;5049391;28;20048;-62
2021/08/21 04:16:53;;;;;;;10.13;6.05;;;;;;;13.56;92.62;100590.19;5050421;28;20434;-60
2021/08/21 04:19:20;;;;;;;7.32;5.10;;;;;;;13.61;92.36;100594.09;5048802;28;20071;-61
2021/08/21 04:21:47;;;;;;;10.43;5.97;;;;;;;13.67;91.98;100596.19;5049660;28;20110;-59
2021/08/21 04:24:13;;;;;;;6.28;4.70;;;;;;;13.68;91.88;100595.19;5048710;28;20458;-62
2021/08/21 04:26:39;;;;;;;7.60;5.47;;;;;;;13.74;91.65;100593.75;5050352;28;20076;-60
2021/08/21 04:29:05;;;;;;;6.82;4.43;;;;;;;13.72;91.75;100599.25;5049942;28;20045;-61
2021/08/21 04:31:32;;;;;;;6.57;5.25;;;;;;;13.70;92.10;100600.44;5050527;28;20045;-64
2021/08/21 04:33:58;;;;;;;8.77;5.68;;;;;;;13.70;92.26;100597.72;5050128;28;20495;-60
2021/08/21 04:36:26;;;;;;;10.90;7.07;;;;;;;13.72;92.10;100601.97;5049796;28;20131;-63
2021/08/21 04:38:52;;;;;;;8.82;5.88;;;;;;;13.75;91.99;100606.22;5050109;28;20049;-61
2021/08/21 04:41:35;;;;;;;6.50;4.93;;;;;;;13.80;91.72;100603.88;5049457;28;20576;-61
2021/08/21 04:44:01;;;;;;;12.88;7.18;;;;;;;13.80;91.62;100603.03;5050026;28;20040;-61
2021/08/21 04:46:27;;;;;;;11.13;7.40;;;;;;;13.77;91.61;100608.75;5050017;28;20400;-60
2021/08/21 04:48:54;;;;;;;8.07;4.90;;;;;;;13.84;91.34;100612.50;5044253;28;20117;-60
2021/08/21 04:51:20;;;;;;;9.95;5.75;;;;;;;13.91;91.02;100605.50;5044841;28;20045;-63
2021/08/21 04:53:48;;;;;;;5.82;4.03;;;;;;;14.08;90.19;100612.69;5044607;28;20478;-63
2021/08/21 04:56:14;;;;;;;5.88;4.50;;;;;;;14.16;89.91;100614.63;5050248;28;20122;-61
2021/08/21 04:58:40;;;;;;;8.23;6.13;;;;;;;14.18;90.29;100608.03;5049372;28;20091;-61
2021/08/21 05:01:07;;;;;;;12.07;6.50;;;;;;;14.20;90.38;100610.59;5063713;22;20049;-78
2021/08/21 05:03:33;;;;;;;10.55;7.15;;;;;;;14.19;90.10;100615.13;5054987;28;20049;-78
2021/08/21 05:05:59;;;;;;;12.73;7.05;;;;;;;14.21;90.57;100609.59;5051928;28;20071;-79
2021/08/21 05:08:26;;;;;;;7.78;5.35;;;;;;;14.27;90.56;100614.34;5049109;28;20052;-77
2021/08/21 05:10:54;;;;;;;11.15;6.55;;;;;;;14.31;90.55;100610.31;5044352;28;20450;-79
2021/08/21 05:13:20;;;;;;;16.52;8.90;;;;;;;14.34;89.83;100618.97;5044900;28;20263;-77
2021/08/21 05:15:47;;;;;;;18.45;8.90;;;;;;;14.34;90.41;100618.13;5053267;28;20045;-78
2021/08/21 05:18:14;;;;;;;16.13;8.48;;;;;;;14.38;90.69;100618.63;5052055;28;20457;-77
2021/08/21 05:20:50;;;;;;;13.15;7.72;;;;;;;14.45;90.72;100627.84;5055109;28;20445;-78
2021/08/21 05:23:16;;;;;;;10.00;7.05;;;;;;;14.51;90.42;100619.09;5062603;28;20144;-80
2021/08/21 05:25:45;;;;;;;7.90;5.30;;;;;;;14.66;89.42;100622.03;5061332;28;20068;-80
2021/08/21 05:28:14;;;;;;;9.02;5.65;;;;;;;14.83;88.48;100621.94;5062171;28;20140;-79
2021/08/21 05:30:43;;;;;;;14.18;7.30;;;;;;;14.98;89.04;100616.75;5062185;28;20045;-79
2021/08/21 05:33:11;;;;;;;10.15;7.05;;;;;;;15.14;88.75;100615.97;5067684;28;20150;-76
2021/08/21 05:35:38;;;;;;;12.38;6.80;;;;;;;15.27;88.32;100618.19;5064814;28;20041;-75
2021/08/21 05:38:05;;;;;;;11.93;6.88;;;;;;;15.31;88.37;100625.81;5066142;28;20096;-77
2021/08/21 05:40:31;;;;;;;12.65;7.57;;;;;;;15.38;87.72;100624.13;5065802;28;20491;-81
2021/08/21 05:42:58;;;;;;;10.40;7.22;;;;;;;15.42;87.85;100621.97;5060969;28;20045;-80
2021/08/21 05:45:29;;;;;;;8.93;7.00;;;;;;;15.47;87.43;100631.25;5060888;28;20373;-78
2021/08/21 05:47:56;;;;;;;10.90;7.57;;;;;;;15.57;87.72;100622.16;5064064;28;20045;-79
2021/08/21 05:50:23;;;;;;;10.57;6.68;;;;;;;15.69;87.47;100626.25;5061806;28;20056;-75
2021/08/21 05:52:50;;;;;;;10.50;7.30;;;;;;;15.79;86.98;100629.66;5062782;28;20052;-80
2021/08/21 05:55:18;;;;;;;8.55;7.15;;;;;;;15.93;86.74;100628.97;5060753;28;20049;-81
2021/08/21 05:57:45;;;;;;;10.20;7.15;;;;;;;16.02;86.54;100627.09;5063400;28;20049;-78
2021/08/21 06:00:12;;;;;;;9.38;6.13;;;;;;;16.13;86.19;100636.75;5050100;28;20075;-77
2021/08/21 06:02:42;;;;;;;7.20;5.35;;;;;;;16.22;85.88;100633.00;5047667;28;20561;-78
2021/08/21 06:05:11;;;;;;;11.27;6.55;;;;;;;16.33;85.23;100635.34;5035147;28;20044;-75
2021/08/21 06:07:37;;;;;;;11.38;7.55;;;;;;;16.36;84.43;100635.88;5051073;28;20491;-77
2021/08/21 06:10:05;;;;;;;10.43;6.95;;;;;;;16.47;84.65;100634.66;5052144;28;20095;-79
2021/08/21 06:12:31;;;;;;;10.15;6.82;;;;;;;16.66;84.58;100642.38;5052030;28;20099;-78
2021/08/21 06:14:58;;;;;;;7.65;5.72;;;;;;;16.87;83.46;100641.00;5043588;28;20099;-78
2021/08/21 06:17:24;;;;;;;11.13;7.50;;;;;;;17.02;80.57;100643.81;5053471;28;20056;-78
2021/08/21 06:19:52;;;;;;;10.95;7.20;;;;;;;17.08;80.03;100646.69;5051939;28;20095;-79
2021/08/21 06:22:18;;;;;;;10.77;6.65;;;;;;;17.23;79.18;100649.47;5047330;28;20056;-79
2021/08/21 06:24:45;;;;;;;9.25;6.85;;;;;;;17.39;79.68;100653.97;5052222;28;20096;-78
2021/08/21 06:27:11;;;;;;;10.98;7.22;;;;;;;17.58;79.98;100653.53;5052377;28;20529;-78
2021/08/21 06:29:37;;;;;;;8.68;6.47;;;;;;;17.72;78.50;100657.34;5051143;28;20044;-78
2021/08/21 06:32:06;;;;;;;10.20;6.28;;;;;;;17.77;76.37;100649.53;5038020;28;20118;-78
2021/08/21 06:34:33;;;;;;;11.38;6.97;;;;;;;17.87;76.37;100646.53;5048549;28;20135;-78
2021/08/21 06:37:01;;;;;;;9.90;6.88;;;;;;;18.01;75.69;100659.34;5042460;28;20415;-78
2021/08/21 06:39:28;;;;;;;10.13;7.25;;;;;;;18.16;74.90;100662.09;5045242;28;20053;-78
2021/08/21 06:41:55;;;;;;;11.13;7.68;;;;;;;18.22;75.46;100659.50;5053715;28;20053;-79
2021/08/21 06:44:21;;;;;;;7.80;6.32;;;;;;;18.24;74.72;100662.88;5051170;28;20421;-80
2021/08/21 06:46:48;;;;;;;11.65;8.15;;;;;;;18.11;74.20;100652.66;5046655;28;20056;-78
2021/08/21 06:49:14;;;;;;;10.55;8.48;;;;;;;18.18;74.32;100654.63;5051253;28;20045;-78
2021/08/21 06:51:41;;;;;;;8.07;5.88;;;;;;;18.32;74.42;100661.94;5036069;28;20499;-78
2021/08/21 06:54:09;;;;;;;9.23;6.63;;;;;;;18.30;74.34;100654.00;5059414;28;20064;-77
2021/08/21 06:56:35;;;;;;;13.48;8.48;;;;;;;18.28;74.58;100647.91;5060834;28;20049;-76
2021/08/21 06:59:02;;;;;;;10.70;8.10;;;;;;;18.32;74.72;100657.34;5056893;28;20476;-77
2021/08/21 07:01:29;;;;;;;9.98;7.13;;;;;;;18.39;74.82;100652.88;5055092;28;20136;-77
2021/08/21 07:03:55;;;;;;;9.85;7.65;;;;;;;18.41;74.12;100649.97;5054940;28;20156;-78
2021/08/21 07:06:22;;;;;;;8.40;6.28;;;;;;;18.41;73.46;100650.81;5054497;28;20716;-78
2021/08/21 07:08:48;;;;;;;10.65;6.68;;;;;;;18.40;72.42;100653.72;5054714;28;20421;-77
2021/08/21 07:11:16;;;;;;;7.57;5.10;;;;;;;18.74;71.15;100650.50;5053902;28;20059;-78
2021/08/21 07:13:45;;;;;;;9.13;6.85;;;;;;;19.08;68.31;100651.81;5054631;28;20111;-77
2021/08/21 07:16:13;;;;;;;9.48;6.40;;;;;;;19.08;68.37;100651.81;5054024;28;20041;-78
2021/08/21 07:18:39;;;;;;;8.73;6.25;;;;;;;19.16;68.23;100657.97;5053021;28;20055;-79
2021/08/21 07:21:08;;;;;;;13.52;6.63;;;;;;;19.32;68.00;100647.94;5048755;28;20065;-78
2021/08/21 07:23:35;;;;;;;6.75;4.78;;;;;;;19.61;67.65;100653.31;5051814;28;20041;-79
2021/08/21 07:26:01;;;;;;;6.68;5.45;;;;;;;19.81;67.22;100662.53;5050569;28;20044;-77
2021/08/21 07:28:30;;;;;;;5.60;4.30;;;;;;;20.18;65.01;100654.28;5051794;28;20083;-77
2021/08/21 07:30:57;;;;;;;7.10;5.03;;;;;;;20.20;64.69;100647.56;5052747;28;20453;-79
2021/08/21 07:33:24;;;;;;;6.00;4.03;;;;;;;20.21;64.52;100660.16;5051569;28;20575;-77
2021/08/21 07:35:50;;;;;;;8.82;6.13;;;;;;;20.28;65.50;100652.06;5053268;28;20057;-76
2021/08/21 07:38:17;;;;;;;8.13;6.32;;;;;;;20.20;66.39;100663.94;5056750;28;20465;-77
2021/08/21 07:40:43;;;;;;;10.35;7.75;;;;;;;20.21;65.88;100651.16;5055829;28;20469;-79
2021/08/21 07:43:10;;;;;;;8.63;6.70;;;;;;;20.31;65.66;100659.81;5057467;28;20099;-79
2021/08/21 07:45:38;;;;;;;9.48;6.57;;;;;;;20.34;65.49;100659.41;5055858;28;20056;-78
2021/08/21 07:48:05;;;;;;;9.93;6.80;;;;;;;20.57;65.62;100660.06;5055126;28;20049;-78
2021/08/21 07:50:32;;;;;;;9.20;6.22;;;;;;;20.48;64.44;100652.22;5055924;28;20510;-80
2021/08/21 07:52:58;;;;;;;8.57;6.75;;;;;;;20.53;64.69;100657.94;5055745;28;20400;-79
2021/08/21 07:55:26;;;;;;;6.32;4.85;;;;;;;20.76;64.59;100654.94;5055111;28;20154;-79
2021/08/21 07:57:52;;;;;;;7.32;5.25;;;;;;;20.71;64.24;100656.38;5055135;28;20068;-77
2021/08/21 08:00:19;;;;;;;7.78;5.63;;;;;;;20.67;64.39;100660.53;5053475;28;20061;-78
2021/08/21 08:02:47;;;;;;;8.80;5.63;;;;;;;20.84;64.55;100657.50;5049948;28;20099;-78
2021/08/21 08:05:13;;;;;;;8.32;6.30;;;;;;;20.67;63.28;100660.53;5042473;28;20450;-77
2021/08/21 08:07:40;;;;;;;8.27;6.68;;;;;;;20.79;63.75;100659.97;5050402;28;20048;-78
2021/08/21 08:10:08;;;;;;;5.78;4.60;;;;;;;20.99;62.50;100659.06;5045487;28;20144;-79
2021/08/21 08:12:35;;;;;;;9.35;5.80;;;;;;;21.11;62.05;100661.22;5048999;28;20060;-79
2021/08/21 08:15:02;;;;;;;7.15;5.28;;;;;;;21.32;60.94;100665.75;5049382;28;20099;-77
2021/08/21 08:17:28;;;;;;;8.30;5.47;;;;;;;21.38;61.86;100670.38;5049009;28;20053;-77
2021/08/21 08:19:56;;;;;;;8.18;5.95;;;;;;;21.55;60.53;100675.28;5049910;28;20094;-76
2021/08/21 08:22:24;;;;;;;8.30;5.25;;;;;;;21.91;60.30;100678.75;5032617;28;20045;-78
2021/08/21 08:24:50;;;;;;;9.80;6.07;;;;;;;21.95;58.50;100680.00;5050783;28;20487;-80
2021/08/21 08:27:18;;;;;;;9.27;5.95;;;;;;;21.90;59.15;100672.41;5049928;28;20418;-78
2021/08/21 08:29:45;;;;;;;7.38;5.50;;;;;;;21.66;60.41;100678.44;5050210;28;20102;-79
2021/08/21 08:32:13;;;;;;;8.73;5.57;;;;;;;21.58;59.69;100674.03;5049744;28;20067;-78
2021/08/21 08:34:40;;;;;;;7.65;5.47;;;;;;;21.76;59.27;100677.00;5049844;28;20060;-79
2021/08/21 08:37:10;;;;;;;8.95;6.20;;;;;;;21.94;58.69;100678.31;5051737;28;20411;-77
2021/08/21 08:39:37;;;;;;;8.88;6.40;;;;;;;22.15;57.45;100670.81;5054128;28;20132;-78
2021/08/21 08:42:04;;;;;;;6.97;4.80;;;;;;;22.34;57.74;100671.84;5048781;28;20048;-79
2021/08/21 08:44:32;;;;;;;7.15;5.28;;;;;;;22.70;56.23;100678.75;5052281;28;20420;-77
2021/08/21 08:47:00;;;;;;;7.78;5.60;;;;;;;23.00;55.41;100673.69;5052834;28;20128;-76
2021/08/21 08:49:28;;;;;;;8.77;6.07;;;;;;;22.78;55.50;100670.34;5054209;28;20048;-77
2021/08/21 08:51:55;;;;;;;10.02;7.25;;;;;;;22.46;56.29;100677.53;5053865;28;20044;-78
2021/08/21 08:54:23;;;;;;;10.27;7.03;;;;;;;22.26;55.82;100674.81;5053935;28;20072;-78
2021/08/21 08:56:50;;;;;;;9.57;6.57;;;;;;;22.35;55.66;100684.47;5044442;28;20037;-77
2021/08/21 08:59:16;;;;;;;8.27;6.50;;;;;;;22.69;56.55;100683.38;5037642;28;20053;-78
2021/08/21 09:01:44;;;;;;;13.52;7.38;;;;;;;22.67;55.63;100687.41;5044057;28;20053;-76
2021/08/21 09:04:16;;;;;;;7.25;5.35;;;;;;;22.90;56.04;100679.59;5038231;28;20058;-77
2021/08/21 09:06:42;;;;;;;8.45;5.78;;;;;;;22.81;55.49;100677.25;5037258;28;20041;-79
2021/08/21 09:09:10;;;;;;;8.48;6.43;;;;;;;23.05;55.59;100684.81;5036600;28;20403;-79
2021/08/21 09:11:41;;;;;;;12.43;8.43;;;;;;;22.54;55.59;100679.22;5036884;28;20492;-77
2021/08/21 09:14:17;;;;;;;11.15;7.95;;;;;;;22.75;56.09;100679.81;5039476;28;20110;-78
2021/08/21 09:16:43;;;;;;;9.75;7.47;;;;;;;22.35;55.32;100681.72;5035872;28;20046;-77
2021/08/21 09:19:09;;;;;;;11.05;7.10;;;;;;;23.01;53.53;100673.47;5046869;28;20053;-78
2021/08/21 09:21:36;;;;;;;12.80;9.48;;;;;;;22.88;54.66;100678.97;5041364;28;20067;-78
2021/08/21 09:24:23;;;;;;;12.30;9.15;;;;;;;23.16;54.99;100673.19;5037830;28;20053;-76
2021/08/21 09:26:51;;;;;;;14.45;10.00;;;;;;;22.76;55.55;100678.75;5041351;28;20129;-79
2021/08/21 09:29:26;;;;;;;15.02;10.75;;;;;;;22.90;56.02;100674.13;5040821;28;20110;-77
2021/08/21 09:32:04;;;;;;;13.15;10.95;;;;;;;22.68;56.88;100687.19;5040034;28;20045;-78
2021/08/21 09:34:30;;;;;;;14.75;10.32;;;;;;;23.20;55.74;100679.91;5040295;28;20103;-78
2021/08/21 09:36:57;;;;;;;12.95;10.07;;;;;;;23.55;54.24;100668.59;5043112;28;20404;-79
2021/08/21 09:39:34;;;;;;;13.10;10.20;;;;;;;24.01;53.36;100668.34;5037630;28;20080;-76
2021/08/21 09:42:04;;;;;;;14.75;10.40;;;;;;;24.07;54.37;100666.63;5046338;28;20148;-77
2021/08/21 09:44:33;;;;;;;15.63;10.02;;;;;;;24.47;52.38;100664.41;5035837;28;20041;-77
2021/08/21 09:47:15;;;;;;;15.20;11.55;;;;;;;24.06;52.69;100667.69;5035101;28;20495;-78
2021/08/21 09:49:42;;;;;;;15.43;11.05;;;;;;;24.29;52.98;100661.59;5035820;28;20452;-77
2021/08/21 09:52:12;;;;;;;20.98;11.48;;;;;;;23.64;53.74;100670.06;5043339;28;20064;-78
2021/08/21 09:54:38;;;;;;;14.02;10.63;;;;;;;24.11;53.76;100662.38;5038778;28;20071;-79
2021/08/21 09:57:06;;;;;;;12.98;9.10;;;;;;;24.60;52.66;100664.28;5042958;28;20046;-78
2021/08/21 09:59:35;;;;;;;13.60;9.77;;;;;;;24.40;52.82;100667.22;5037477;28;20045;-77
2021/08/21 10:02:05;;;;;;;14.43;9.20;;;;;;;24.47;51.37;100662.50;5044809;28;20055;-78
2021/08/21 10:04:32;;;;;;;12.07;8.93;;;;;;;23.43;54.27;100665.69;5046697;28;20103;-79
2021/08/21 10:07:00;;;;;;;13.40;10.75;;;;;;;23.43;54.23;100662.13;5044264;28;20053;-77
2021/08/21 10:09:28;;;;;;;11.02;7.82;;;;;;;23.39;54.40;100663.63;5038481;28;20099;-78
2021/08/21 10:11:55;;;;;;;17.95;11.52;;;;;;;23.28;54.91;100670.63;5043291;28;20049;-79
2021/08/21 10:14:25;;;;;;;17.73;11.80;;;;;;;22.73;55.57;100661.91;5039860;28;20132;-79
2021/08/21 10:16:51;;;;;;;14.48;10.50;;;;;;;22.87;56.23;100658.13;5046835;28;20445;-78
2021/08/21 10:19:19;;;;;;;15.13;11.43;;;;;;;22.93;56.19;100662.75;5037660;28;20052;-77
2021/08/21 10:21:50;;;;;;;16.42;11.52;;;;;;;22.88;55.15;100662.56;5043164;28;20048;-78
2021/08/21 10:24:26;;;;;;;34.95;13.48;;;;;;;22.23;57.24;100661.53;5037466;28;20084;-79
2021/08/21 10:26:59;;;;;;;12.98;9.30;;;;;;;21.97;57.88;100661.50;5046465;28;20041;-79
2021/08/21 10:29:27;;;;;;;9.25;6.82;;;;;;;21.52;59.39;100663.91;5042668;28;20552;-77
2021/08/21 10:31:53;;;;;;;9.35;5.75;;;;;;;21.92;59.38;100669.50;5040882;28;20713;-79
2021/08/21 10:34:19;;;;;;;13.90;6.03;;;;;;;22.30;57.58;100656.91;5043686;28;20388;-78
2021/08/21 10:36:52;;;;;;;7.97;5.30;;;;;;;22.50;56.49;100658.81;5043217;28;20042;-79
2021/08/21 10:39:22;;;;;;;6.63;5.35;;;;;;;21.97;58.38;100665.06;5039203;28;20633;-80
2021/08/21 10:41:50;;;;;;;8.50;5.97;;;;;;;21.73;58.58;100669.22;5037526;28;20057;-77
2021/08/21 10:44:44;;;;;;;7.95;4.78;;;;;;;21.60;59.12;100664.56;5036097;28;20064;-76
2021/08/21 10:47:38;;;;;;;6.32;5.20;;;;;;;21.57;58.92;100661.44;5043207;28;20084;-78
2021/08/21 10:50:31;;;;;;;9.95;5.80;;;;;;;21.77;58.76;100667.75;5049674;22;20048;-57
2021/08/21 10:52:58;;;;;;;7.43;5.68;;;;;;;21.50;59.30;100666.00;5036325;28;20060;-57
2021/08/21 10:55:26;;;;;;;9.32;6.40;;;;;;;21.16;60.51;100665.00;5036926;28;20675;-59
2021/08/21 10:58:01;;;;;;;6.38;4.80;;;;;;;21.41;59.95;100678.16;5039190;28;20041;-58
2021/08/21 11:01:04;;;;;;;16.20;5.97;;;;;;;21.48;58.97;100673.56;5050497;22;20049;-63
2021/08/21 11:03:49;;;;;;;11.15;5.43;;;;;;;21.38;59.46;100671.22;5026569;28;20415;-62
2021/08/21 11:06:31;;;;;;;8.63;5.20;;;;;;;21.46;58.97;100665.59;5019809;28;20064;-62
2021/08/21 11:09:04;;;;;;;8.02;5.22;;;;;;;21.00;60.43;100668.09;5019994;28;20420;-63
2021/08/21 11:11:35;;;;;;;7.20;5.55;;;;;;;21.08;60.35;100670.66;5018829;28;20051;-62
2021/08/21 11:14:04;;;;;;;6.65;3.97;;;;;;;21.22;60.42;100672.41;5015723;28;20487;-63
2021/08/21 11:16:46;;;;;;;9.38;5.55;;;;;;;21.10;60.92;100665.84;5015028;28;20041;-63
2021/08/21 11:19:29;;;;;;;7.07;5.50;;;;;;;21.06;61.53;100666.41;5014943;28;20073;-63
2021/08/21 11:22:12;;;;;;;9.90;5.97;;;;;;;20.96;60.94;100664.09;5020704;28;20046;-65
2021/08/21 11:24:41;;;;;;;11.38;6.15;;;;;;;20.79;61.53;100662.72;5020539;28;20516;-63
2021/08/21 11:27:29;;;;;;;8.25;5.70;;;;;;;20.82;61.65;100667.75;5014882;28;20424;-63